Lake Stevens, WA (98258)

9:25 PM PDT on September 16, 2014 (GMT -0700)
Catherine Creek | Change Station
CLOSE
Current Station
Personal Weather Station
Location: Lake Stevens, WA
Elevation: 246 ft
Nearby Weather Stations

Elev 246 ft 48.03 °N, 122.06 °W | Updated 0 second ago

Mostly Cloudy
Mostly Cloudy
62.1 °F
Feels Like 62.1 °F
N
0.0
Wind Variable Wind from NW
Gusts 0.0 mph

Today
High -- | Low -- °F
--% Chance of Precip.
Yesterday
High -- | Low -- °F
Precip. -- in
6:46 AM 7:18 PM
Last Quarter, 39% visible
Pressure 29.88 in
Visibility 10.0 miles
Clouds Clear
Dew Point 56 °F
Humidity 82%
Rainfall 0.00 in
Snow Depth 0 in , 0 in , 0 in
UV 0 out of 12
Pollen 1.10 out of 12
PM2.5 Moderate
Flu Activity Not available.
METAR KAWO 170415Z AUTO 31005KT 10SM CLR 17/12 A2988 RMK AO1

More Conditions Fewer Conditions

Pressure 29.88 in
Visibility 10.0 miles
Clouds Clear
Dew Point 56 °F
Humidity 82%
Rainfall 0.00 in
Snow Depth 0 in , 0 in , 0 in
UV 0 out of 12
Pollen 1.10 out of 12
PM2.5 Moderate
Flu Activity Not available.
METAR KAWO 170415Z AUTO 31005KT 10SM CLR 17/12 A2988 RMK AO1

More Conditions Fewer Conditions

10-Day Weather Forecast

Almanac

Astronomy

Sep. 16, 2014 Rise Set
Actual Time 6:46 AM PDT 7:18 PM PDT
Civil Twilight 6:15 AM PDT 7:49 PM PDT
Nautical Twilight 5:38 AM PDT 8:26 PM PDT
Astronomical Twilight 4:59 AM PDT 9:04 PM PDT
Moon No Moon Rise 3:05 PM PDT (9/16)
Length of Visible Light 13h 33m
Length of Day
12h 31m
Tomorrow will be 3m 28s shorter.
Last Quarter, 39% of the Moon is Illuminated
Sep 17
Last Quarter
Sep 24
New
Oct 1
First Quarter
Oct 8
Full
Oct 15
Last Quarter

Today's Extremes

State Highs State Lows

Community

WunderPhotos

Upload Photos

1,753,965 photos uploaded!

Nearby

Air Quality

  Air Quality AQ Index Pollutant
Yesterday Moderate
PM2.5
Yesterday Good
OZONE
Current Moderate
PM2.5
Tuesday Good
OZONE
Tuesday Good
PM2.5
Wednesday Good
OZONE
Wednesday Good
PM2.5
Thursday Good
OZONE
Thursday Good
PM2.5
Friday Good
OZONE
Friday Good
PM2.5
Saturday Good
OZONE
Saturday Good
PM2.5

Snow Depth

Station Depth Elevation
Meadows Pass 0 in 3500 ft
Park Creek Ridge 0 in 4600 ft
Touchet 0 in 5530 ft
Fish Lake 0 in 3371 ft
Lyman Lake 0 in 5900 ft

Earthquake Activity

City Distance Mag. Time & Date
Morton, Washington 118 miles 3.0 5:43 AM PDT
2014-09-16
Minimum magnitude displayed is 2.5.

Coastal Water Temperatures

Place Temperature
Port Townsend, WA 53.1 °F
Seattle, WA 55.9 °F
Friday Harbor, WA 53.1 °F
Tacoma, WA 55.9 °F

Nearby Weather Stations